Broken Arrow, OK (74012)

4:57 PM CDT on August 25, 2016 (GMT -0500)
Village Square Third | | Change Station

Elev 719 ft 36.03 °N, 95.80 °W | Updated 1 second ago

Mostly Cloudy
Mostly Cloudy
95.7 °F
Feels Like 103 °F
N
0.0
Wind Variable Wind from SE

Today
High -- | Low -- °F
--% Chance of Precip.
Yesterday
High -- | Low -- °F
Precip. -- in
Pressure 29.96 in
Visibility 10.0 miles
Clouds Scattered Clouds 9000 ft
Mostly Cloudy 11000 ft
Heat Index 103 °F
Dew Point 71 °F
Humidity 45%
Rainfall 0.00 in
Snow Depth Not available.
6:49 AM 7:59 PM
Last Quarter, 41% visible
METAR KRVS 252153Z 19008KT 10SM SCT090 BKN110 36/21 A2995 RMK AO2 LTG DSNT W-N SLP145 T03560211
Pressure 29.96 in
Visibility 10.0 miles
Clouds Scattered Clouds 9000 ft
Mostly Cloudy 11000 ft
Heat Index 103 °F
Dew Point 71 °F
Humidity 45%
Rainfall 0.00 in
Snow Depth Not available.
6:49 AM 7:59 PM
Last Quarter, 41% visible
METAR KRVS 252153Z 19008KT 10SM SCT090 BKN110 36/21 A2995 RMK AO2 LTG DSNT W-N SLP145 T03560211
A tropical disturbance pushing toward the Bahamas, is expected to develop into a tropical depression or storm, and will likely target Florida and the Gulf Coast this weekend into next week.

Right now, the disturbance remains a broad area of low pressure pushing through the Dominican Republic and Haiti, headed toward the southeast Bahamas. Rainfall totals over 3 inches (with locally higher amounts) are expected in HispaƱiola, particularly over elevated terrain.

10-Day Weather Forecast

Almanac

Astronomy

Aug. 25, 2016 Rise Set
Actual Time
Civil Twilight
Nautical Twilight
Astronomical Twilight
Moon
Length of Visible Light
Length of Day
Tomorrow will be .
, % of the Moon is Illuminated

Today's Extremes

State Highs State Lows

Community

WunderPhotos

Upload Photos

1,934,947 photos uploaded!

WunderBlog® & News

Nearby

Air Quality

  Air Quality AQ Index Pollutant
Not available.

Snow Depth

Station Depth Elevation

Earthquake Activity

City Distance Mag. Time & Date
Minimum magnitude displayed is 2.5.

Coastal Water Temperatures

Place Temperature

Stations

Nearby Weather Stations

Station Location Temp. Windchill Dew Point Humidity Wind Precip. Elev Updated Type
                   

Watches & Warnings

There are currently no watches in effect.